Time;durP1;ratioP1;P1;durP2;ratioP2;P2;SDS_P1;SDS_P2;PMS_P1;PMS_P2;Temp;Humidity;BMP_temperature;BMP_pressure;BME280_temperature;BME280_humidity;BME280_pressure;Samples;Min_cycle;Max_cycle;Signal;HPM_P1;HPM_P2
2023/03/17 00:01:24;;;;;;;9.93;9.53;;;8.50;84.20;;;;;;4923393;29;20462;-77
2023/03/17 00:03:52;;;;;;;10.07;9.70;;;8.30;82.60;;;;;;4925553;29;20482;-74
2023/03/17 00:06:26;;;;;;;10.33;9.93;;;8.20;84.70;;;;;;4926510;29;20462;-79
2023/03/17 00:08:56;;;;;;;10.97;10.47;;;8.20;86.20;;;;;;4918897;29;20465;-78
2023/03/17 00:11:27;;;;;;;10.40;10.00;;;8.30;90.80;;;;;;4923049;29;20468;-78
2023/03/17 00:13:55;;;;;;;10.97;10.57;;;8.20;88.00;;;;;;4921346;29;20506;-77
2023/03/17 00:16:25;;;;;;;11.10;10.57;;;8.30;89.50;;;;;;4919938;29;20475;-79
2023/03/17 00:18:55;;;;;;;11.37;10.77;;;8.30;90.80;;;;;;4920888;29;20487;-80
2023/03/17 00:21:27;;;;;;;11.13;10.43;;;8.20;92.70;;;;;;4916860;29;21048;-78
2023/03/17 00:23:56;;;;;;;11.47;10.63;;;8.20;93.80;;;;;;4923580;29;20553;-80
2023/03/17 00:26:27;;;;;;;10.80;10.30;;;8.00;94.40;;;;;;4919338;29;20481;-77
2023/03/17 00:28:55;;;;;;;11.00;10.60;;;8.00;95.60;;;;;;4924391;29;20509;-76
2023/03/17 00:31:26;;;;;;;11.93;11.43;;;8.10;97.40;;;;;;4914859;29;20492;-78
2023/03/17 00:33:55;;;;;;;11.80;11.27;;;8.10;99.00;;;;;;4917390;29;20570;-80
2023/03/17 00:36:26;;;;;;;11.97;11.33;;;8.30;99.90;;;;;;4916512;29;20542;-82
2023/03/17 00:38:56;;;;;;;10.93;10.53;;;8.30;98.50;;;;;;4916168;29;20483;-78
2023/03/17 00:41:25;;;;;;;11.10;10.70;;;8.30;96.90;;;;;;4920053;29;20464;-79
2023/03/17 00:43:54;;;;;;;11.13;10.63;;;8.30;96.10;;;;;;4917369;29;20488;-78
2023/03/17 00:46:27;;;;;;;11.53;11.03;;;8.20;96.20;;;;;;4919610;29;21036;-78
2023/03/17 00:48:56;;;;;;;11.60;11.00;;;8.10;99.90;;;;;;4922238;29;20511;-75
2023/03/17 00:51:24;;;;;;;10.77;10.37;;;8.10;99.90;;;;;;4923471;29;20808;-76
2023/03/17 00:53:52;;;;;;;10.47;10.07;;;8.00;99.90;;;;;;4915226;29;20493;-77
2023/03/17 00:56:21;;;;;;;10.40;10.00;;;8.00;99.90;;;;;;4923018;29;20986;-79
2023/03/17 00:58:51;;;;;;;10.00;9.50;;;8.20;99.90;;;;;;4923561;29;20566;-79
2023/03/17 01:01:19;;;;;;;11.03;10.50;;;8.30;99.90;;;;;;4921959;29;20460;-78
2023/03/17 01:03:47;;;;;;;11.00;10.60;;;8.30;98.50;;;;;;4926132;29;20978;-79
2023/03/17 01:06:16;;;;;;;10.50;10.10;;;8.40;96.20;;;;;;4924901;29;20463;-79
2023/03/17 01:08:45;;;;;;;11.00;10.50;;;8.50;95.70;;;;;;4926182;29;20453;-76
2023/03/17 01:11:17;;;;;;;10.93;10.37;;;8.50;96.00;;;;;;4918911;29;20455;-79
2023/03/17 01:13:45;;;;;;;10.13;9.73;;;8.60;95.60;;;;;;4921566;29;20510;-78
2023/03/17 01:16:15;;;;;;;10.43;10.03;;;8.60;94.00;;;;;;4921830;29;20499;-78
2023/03/17 01:18:44;;;;;;;10.33;9.93;;;8.60;91.70;;;;;;4921635;29;20546;-79
2023/03/17 01:21:12;;;;;;;10.03;9.53;;;8.60;91.50;;;;;;4923205;29;20463;-78
2023/03/17 01:23:41;;;;;;;10.53;10.03;;;8.50;91.50;;;;;;4921809;29;20478;-78
2023/03/17 01:26:09;;;;;;;10.40;9.90;;;8.50;91.00;;;;;;4927585;29;20460;-76
2023/03/17 01:28:38;;;;;;;10.23;9.80;;;8.50;91.40;;;;;;4919642;29;21005;-77
2023/03/17 01:31:06;;;;;;;10.60;10.10;;;8.50;90.40;;;;;;4920034;29;20469;-81
2023/03/17 01:33:35;;;;;;;10.03;9.53;;;8.60;91.20;;;;;;4919411;29;20479;-80
2023/03/17 01:36:03;;;;;;;9.93;9.43;;;8.50;91.30;;;;;;4923814;29;20470;-78
2023/03/17 01:38:32;;;;;;;10.50;9.90;;;8.50;90.50;;;;;;4924755;29;20895;-79
2023/03/17 01:41:02;;;;;;;9.33;9.00;;;8.50;88.40;;;;;;4921154;29;20467;-79
2023/03/17 01:43:30;;;;;;;9.50;9.03;;;8.60;86.10;;;;;;4924029;29;21398;-78
2023/03/17 01:46:28;;;;;;;9.33;8.93;;;8.60;84.30;;;;;;4921664;29;21068;-79
2023/03/17 01:49:09;;;;;;;9.70;9.10;;;8.60;80.90;;;;;;4923908;29;20952;-79
2023/03/17 01:51:45;;;;;;;18.50;16.70;;;8.70;79.30;;;;;;4926809;29;20478;-79
2023/03/17 01:54:20;;;;;;;14.80;13.27;;;8.60;77.70;;;;;;4927646;29;20454;-81
2023/03/17 01:56:52;;;;;;;11.37;10.57;;;8.60;78.40;;;;;;4909197;29;20525;-80
2023/03/17 01:59:26;;;;;;;9.03;8.57;;;8.70;78.50;;;;;;4922107;29;21026;-78
2023/03/17 02:02:00;;;;;;;9.77;9.37;;;8.70;78.50;;;;;;4921942;29;21004;-82
2023/03/17 02:04:30;;;;;;;9.37;8.93;;;8.80;75.90;;;;;;4925305;29;20550;-79
2023/03/17 02:06:58;;;;;;;8.97;8.50;;;8.70;74.90;;;;;;4922681;29;20468;-78
2023/03/17 02:09:28;;;;;;;9.20;8.70;;;8.70;69.20;;;;;;4922518;29;20501;-78
2023/03/17 02:11:59;;;;;;;8.23;7.93;;;8.70;70.00;;;;;;4920549;28;20564;-80
2023/03/17 02:14:28;;;;;;;8.03;7.73;;;8.60;67.80;;;;;;4918499;29;20452;-80
2023/03/17 02:16:57;;;;;;;7.90;7.50;;;8.60;65.10;;;;;;4917683;29;20491;-79
2023/03/17 02:19:25;;;;;;;9.63;9.17;;;8.50;65.10;;;;;;4916125;29;20864;-79
2023/03/17 02:21:56;;;;;;;7.93;7.63;;;8.50;73.50;;;;;;4916595;29;20952;-78
2023/03/17 02:24:30;;;;;;;7.33;7.03;;;8.40;69.00;;;;;;4917952;29;20447;-78
2023/03/17 02:27:05;;;;;;;8.10;7.70;;;8.50;61.50;;;;;;4918122;29;20476;-79
2023/03/17 02:29:36;;;;;;;7.70;7.33;;;8.50;58.60;;;;;;4914519;29;20810;-77
2023/03/17 02:32:05;;;;;;;7.13;6.90;;;8.50;54.70;;;;;;4917464;29;20474;-79
2023/03/17 02:34:34;;;;;;;7.43;7.03;;;8.50;53.00;;;;;;4924952;29;20508;-78
2023/03/17 02:37:04;;;;;;;7.27;6.93;;;8.50;51.90;;;;;;4923842;29;20897;-80
2023/03/17 02:39:32;;;;;;;7.53;7.13;;;8.50;49.50;;;;;;4922381;29;20483;-77
2023/03/17 02:42:00;;;;;;;6.27;6.07;;;8.50;46.60;;;;;;4920348;29;21063;-79
2023/03/17 02:44:29;;;;;;;7.43;7.13;;;8.50;46.50;;;;;;4921886;29;20463;-76
2023/03/17 02:46:57;;;;;;;6.70;6.30;;;8.50;44.70;;;;;;4908351;29;20467;-78
2023/03/17 02:49:26;;;;;;;8.30;6.37;;;8.50;43.30;;;;;;4918791;29;20541;-79
2023/03/17 02:51:54;;;;;;;6.33;6.13;;;8.50;45.80;;;;;;4921095;29;20456;-78
2023/03/17 02:54:24;;;;;;;5.67;5.47;;;8.50;44.30;;;;;;4919556;29;20532;-80
2023/03/17 02:56:52;;;;;;;5.97;5.63;;;8.50;43.20;;;;;;4922836;29;20877;-77
2023/03/17 02:59:21;;;;;;;6.20;5.90;;;8.50;42.60;;;;;;4924949;29;20483;-79
2023/03/17 03:01:49;;;;;;;6.97;6.47;;;8.50;42.80;;;;;;4921528;29;20517;-80
2023/03/17 03:04:18;;;;;;;6.43;6.03;;;8.60;44.00;;;;;;4923993;29;20456;-78
2023/03/17 03:06:47;;;;;;;6.00;5.70;;;8.60;42.40;;;;;;4924652;29;20464;-79
2023/03/17 03:09:16;;;;;;;6.20;5.93;;;8.60;41.60;;;;;;4920694;29;20459;-78
2023/03/17 03:11:47;;;;;;;5.57;5.37;;;8.60;39.80;;;;;;4919396;29;20455;-79
2023/03/17 03:14:16;;;;;;;5.40;5.20;;;8.60;38.30;;;;;;4922201;29;20463;-79
2023/03/17 03:16:44;;;;;;;6.00;5.60;;;8.60;38.40;;;;;;4924000;29;20455;-79
2023/03/17 03:19:12;;;;;;;5.70;5.50;;;8.60;36.80;;;;;;4918895;29;20487;-78
2023/03/17 03:21:41;;;;;;;5.97;5.67;;;8.70;39.10;;;;;;4921279;29;20562;-75
2023/03/17 03:24:09;;;;;;;5.87;5.53;;;8.60;37.40;;;;;;4919304;29;20518;-76
2023/03/17 03:26:38;;;;;;;5.73;5.30;;;8.60;35.90;;;;;;4915518;29;20632;-81
2023/03/17 03:29:07;;;;;;;5.57;5.27;;;8.60;35.30;;;;;;4920504;29;20453;-78
2023/03/17 03:31:36;;;;;;;5.20;5.10;;;8.60;36.10;;;;;;4913361;29;20459;-75
2023/03/17 03:34:04;;;;;;;5.53;5.23;;;8.60;34.90;;;;;;4919158;29;20470;-79
2023/03/17 03:36:32;;;;;;;5.60;5.27;;;8.70;35.50;;;;;;4916058;29;20495;-78
2023/03/17 03:39:00;;;;;;;5.40;5.20;;;8.60;32.10;;;;;;4917423;29;21341;-78
2023/03/17 03:41:29;;;;;;;5.40;5.20;;;8.60;30.80;;;;;;4917922;29;20981;-80
2023/03/17 03:43:57;;;;;;;5.07;4.87;;;8.60;30.60;;;;;;4920232;29;21348;-78
2023/03/17 03:46:27;;;;;;;4.90;4.70;;;8.60;30.70;;;;;;4918054;29;20471;-77
2023/03/17 03:48:55;;;;;;;4.90;4.70;;;8.60;31.00;;;;;;4920621;29;20475;-79
2023/03/17 03:51:23;;;;;;;4.87;4.67;;;8.70;29.50;;;;;;4921152;29;20463;-76
2023/03/17 03:53:51;;;;;;;4.97;4.87;;;8.60;28.70;;;;;;4918016;29;20487;-80
2023/03/17 03:56:19;;;;;;;5.00;4.73;;;8.60;27.40;;;;;;4916970;29;20495;-75
2023/03/17 03:58:47;;;;;;;4.93;4.73;;;8.50;25.50;;;;;;4911873;29;20467;-78
2023/03/17 04:01:16;;;;;;;4.80;4.60;;;8.50;25.30;;;;;;4915392;29;20491;-78
2023/03/17 04:03:46;;;;;;;4.23;4.13;;;8.50;25.90;;;;;;4917941;29;20547;-78
2023/03/17 04:06:15;;;;;;;4.50;4.30;;;8.50;24.70;;;;;;4917379;29;20463;-78
2023/03/17 04:08:43;;;;;;;4.30;4.07;;;8.60;24.50;;;;;;4919125;29;20524;-79
2023/03/17 04:11:11;;;;;;;3.90;3.80;;;8.50;24.00;;;;;;4914429;29;20516;-79
2023/03/17 04:13:39;;;;;;;4.43;4.23;;;8.50;36.30;;;;;;4917607;29;20503;-78
2023/03/17 04:16:08;;;;;;;4.50;4.30;;;8.60;23.60;;;;;;4916970;29;20483;-79
2023/03/17 04:18:37;;;;;;;4.33;4.13;;;8.50;22.10;;;;;;4920193;29;20457;-80
2023/03/17 04:21:07;;;;;;;4.43;4.23;;;8.50;22.20;;;;;;4917864;29;21249;-78
2023/03/17 04:23:35;;;;;;;4.67;4.47;;;8.50;21.60;;;;;;4920913;29;20521;-76
2023/03/17 04:26:03;;;;;;;4.40;4.20;;;8.50;21.70;;;;;;4920637;29;20470;-77
2023/03/17 04:28:32;;;;;;;4.60;4.40;;;8.50;21.40;;;;;;4919251;29;20451;-78
2023/03/17 04:31:00;;;;;;;4.97;4.70;;;8.50;20.80;;;;;;4918707;29;20833;-77
2023/03/17 04:33:28;;;;;;;4.00;3.90;;;8.50;20.30;;;;;;4918922;29;20484;-77
2023/03/17 04:35:57;;;;;;;4.73;4.50;;;8.50;20.50;;;;;;4917912;29;20452;-77
2023/03/17 04:38:27;;;;;;;4.17;4.07;;;8.40;19.80;;;;;;4914423;29;22282;-78
2023/03/17 04:40:55;;;;;;;4.60;4.30;;;8.40;20.10;;;;;;4921908;28;21029;-82
2023/03/17 04:43:23;;;;;;;4.77;4.57;;;8.40;20.20;;;;;;4922927;29;20491;-78
2023/03/17 04:45:51;;;;;;;4.40;4.20;;;8.40;20.00;;;;;;4924527;29;20459;-75
2023/03/17 04:48:19;;;;;;;4.37;4.17;;;8.40;19.90;;;;;;4922243;29;20447;-79
2023/03/17 04:50:48;;;;;;;3.60;3.50;;;8.30;20.00;;;;;;4920232;29;21230;-79
2023/03/17 04:53:16;;;;;;;4.83;4.60;;;8.30;19.20;;;;;;4919986;29;20514;-78
2023/03/17 04:55:46;;;;;;;4.57;4.37;;;8.30;19.20;;;;;;4921636;29;20552;-81
2023/03/17 04:58:14;;;;;;;4.93;4.63;;;8.30;19.40;;;;;;4924726;29;20451;-78
2023/03/17 05:00:57;;;;;;;4.90;4.70;;;8.20;19.20;;;;;;4920629;29;20854;-82
2023/03/17 05:03:26;;;;;;;5.20;4.90;;;8.20;19.60;;;;;;4925990;29;20482;-79
2023/03/17 05:05:56;;;;;;;5.30;5.07;;;8.20;19.40;;;;;;4922320;29;20460;-79
2023/03/17 05:08:24;;;;;;;4.70;4.50;;;8.10;20.80;;;;;;4922422;29;20974;-78
2023/03/17 05:10:54;;;;;;;5.47;5.07;;;7.90;23.10;;;;;;4924835;29;20472;-77
2023/03/17 05:13:22;;;;;;;5.20;4.97;;;7.80;24.70;;;;;;4923020;29;20545;-78
2023/03/17 05:15:51;;;;;;;4.67;4.47;;;7.60;25.20;;;;;;4925273;29;20530;-79
2023/03/17 05:18:20;;;;;;;5.70;5.13;;;7.50;27.40;;;;;;4923876;29;20488;-79
2023/03/17 05:20:48;;;;;;;4.83;4.63;;;7.50;28.40;;;;;;4918980;29;20493;-79
2023/03/17 05:23:17;;;;;;;5.43;5.13;;;7.50;30.10;;;;;;4922369;29;20473;-82
2023/03/17 05:25:45;;;;;;;5.73;5.47;;;7.40;29.90;;;;;;4921652;29;20526;-80
2023/03/17 05:28:15;;;;;;;5.23;5.03;;;7.20;28.20;;;;;;4922589;29;20464;-78
2023/03/17 05:30:44;;;;;;;5.37;5.07;;;7.10;32.00;;;;;;4917438;29;20446;-78
2023/03/17 05:33:13;;;;;;;5.77;5.33;;;7.20;39.50;;;;;;4919194;29;20561;-78
2023/03/17 05:35:41;;;;;;;5.40;5.10;;;7.10;40.40;;;;;;4919710;29;20462;-77
2023/03/17 05:38:11;;;;;;;8.33;7.73;;;7.10;42.60;;;;;;4915996;29;20548;-79
2023/03/17 05:40:39;;;;;;;8.27;7.73;;;7.20;44.60;;;;;;4914845;29;20485;-78
2023/03/17 05:43:08;;;;;;;6.23;5.77;;;7.10;45.80;;;;;;4918629;29;20664;-78
2023/03/17 05:45:38;;;;;;;7.13;6.63;;;7.00;47.40;;;;;;4919483;29;20480;-77
2023/03/17 05:48:06;;;;;;;5.17;4.87;;;7.00;49.30;;;;;;4921162;29;20503;-75
2023/03/17 05:50:34;;;;;;;5.20;5.00;;;7.00;47.20;;;;;;4917234;29;20788;-78
2023/03/17 05:53:02;;;;;;;4.90;4.60;;;7.00;60.70;;;;;;4918457;29;20515;-78
2023/03/17 05:55:30;;;;;;;5.13;4.93;;;7.20;40.10;;;;;;4918197;29;20465;-78
2023/03/17 05:57:59;;;;;;;5.47;5.17;;;7.40;39.30;;;;;;4916140;29;20469;-75
2023/03/17 06:00:28;;;;;;;5.77;5.47;;;7.40;42.00;;;;;;4912682;29;20480;-75
2023/03/17 06:02:58;;;;;;;6.50;6.23;;;7.40;44.60;;;;;;4914547;29;20500;-76
2023/03/17 06:05:26;;;;;;;5.93;5.60;;;7.40;38.20;;;;;;4916202;29;20458;-75
2023/03/17 06:07:54;;;;;;;6.37;5.97;;;7.50;45.90;;;;;;4915522;29;21122;-78
2023/03/17 06:10:24;;;;;;;5.97;5.67;;;7.40;47.30;;;;;;4918229;29;20955;-77
2023/03/17 06:12:52;;;;;;;4.90;4.70;;;7.30;45.20;;;;;;4915733;29;20469;-75
2023/03/17 06:15:21;;;;;;;5.00;4.80;;;7.40;45.80;;;;;;4912700;29;20501;-78
2023/03/17 06:17:49;;;;;;;5.37;5.07;;;7.40;43.80;;;;;;4914274;29;20464;-77
2023/03/17 06:20:19;;;;;;;5.73;5.43;;;7.50;48.30;;;;;;4919277;29;20484;-77
2023/03/17 06:22:48;;;;;;;5.40;5.00;;;7.50;47.10;;;;;;4901505;29;20490;-80
2023/03/17 06:25:31;;;;;;;4.90;4.70;;;7.50;49.20;;;;;;4916436;29;20584;-77
2023/03/17 06:28:02;;;;;;;6.23;5.93;;;7.60;49.60;;;;;;4916649;29;21055;-79
2023/03/17 06:30:31;;;;;;;7.53;5.13;;;7.50;50.40;;;;;;4918592;29;21233;-78
2023/03/17 06:33:00;;;;;;;6.03;5.73;;;7.50;49.80;;;;;;4918175;29;20505;-75
2023/03/17 06:35:30;;;;;;;6.10;5.80;;;7.40;52.90;;;;;;4917106;29;20486;-78
2023/03/17 06:37:59;;;;;;;6.70;6.30;;;7.50;56.30;;;;;;4918892;29;20523;-75
2023/03/17 06:40:28;;;;;;;6.27;5.97;;;7.70;58.10;;;;;;4915531;29;20468;-77
2023/03/17 06:42:56;;;;;;;6.73;6.23;;;7.90;59.80;;;;;;4919450;29;20546;-75
2023/03/17 06:45:25;;;;;;;6.60;6.30;;;8.10;64.30;;;;;;4917587;29;20535;-79
2023/03/17 06:47:53;;;;;;;9.00;8.20;;;8.20;66.90;;;;;;4915678;29;20458;-78
2023/03/17 06:50:21;;;;;;;10.63;9.30;;;8.40;49.80;;;;;;4899582;29;20999;-77
2023/03/17 06:52:51;;;;;;;6.17;5.70;;;8.80;45.40;;;;;;4916442;29;20500;-78
2023/03/17 06:55:20;;;;;;;8.10;7.30;;;9.00;41.00;;;;;;4916922;29;20464;-79
2023/03/17 06:57:48;;;;;;;6.47;6.17;;;9.30;41.20;;;;;;4916171;29;20493;-76
2023/03/17 07:00:19;;;;;;;6.13;5.70;;;9.50;39.00;;;;;;4918011;29;20470;-76
2023/03/17 07:02:48;;;;;;;6.50;6.17;;;9.70;38.80;;;;;;4918320;29;21037;-78
2023/03/17 07:05:16;;;;;;;6.67;6.37;;;9.80;38.00;;;;;;4917518;29;20455;-77
2023/03/17 07:07:45;;;;;;;7.83;7.20;;;9.90;46.00;;;;;;4919453;29;20468;-78
2023/03/17 07:10:16;;;;;;;6.67;6.17;;;10.00;44.90;;;;;;4916451;29;21401;-76
2023/03/17 07:12:44;;;;;;;5.53;5.23;;;10.00;40.20;;;;;;4917755;29;20502;-78
2023/03/17 07:15:12;;;;;;;4.53;4.33;;;10.10;34.20;;;;;;4917354;29;20958;-77
2023/03/17 07:17:41;;;;;;;4.80;4.60;;;10.20;32.70;;;;;;4921126;29;20460;-75
2023/03/17 07:20:10;;;;;;;4.53;4.43;;;10.20;31.60;;;;;;4919617;29;20968;-78
2023/03/17 07:22:39;;;;;;;4.57;4.47;;;10.30;31.10;;;;;;4920440;29;20580;-78
2023/03/17 07:25:08;;;;;;;4.23;4.03;;;10.30;31.90;;;;;;4917874;29;20474;-79
2023/03/17 07:27:38;;;;;;;4.47;4.23;;;10.40;30.50;;;;;;4918636;29;20549;-78
2023/03/17 07:30:07;;;;;;;4.10;4.00;;;10.50;30.20;;;;;;4914718;29;20963;-78
2023/03/17 07:32:36;;;;;;;4.60;4.40;;;10.60;31.20;;;;;;4917005;29;21063;-78
2023/03/17 07:35:06;;;;;;;4.37;4.10;;;10.60;31.10;;;;;;4918079;29;20990;-76
2023/03/17 07:37:35;;;;;;;4.43;4.23;;;10.70;33.20;;;;;;4915407;29;20473;-76
2023/03/17 07:40:05;;;;;;;4.33;4.23;;;10.80;33.40;;;;;;4917939;29;20466;-79
2023/03/17 07:42:33;;;;;;;4.33;4.13;;;10.80;32.10;;;;;;4917930;29;20491;-79
2023/03/17 07:45:04;;;;;;;4.40;4.20;;;10.80;33.10;;;;;;4919137;29;20467;-78
2023/03/17 07:47:33;;;;;;;4.30;4.20;;;10.90;36.10;;;;;;4915824;29;20465;-77
2023/03/17 07:50:01;;;;;;;4.80;4.60;;;11.10;34.90;;;;;;4918533;29;20517;-78
2023/03/17 07:52:30;;;;;;;4.60;4.50;;;11.10;34.00;;;;;;4918782;29;20476;-75
2023/03/17 07:54:58;;;;;;;4.63;4.23;;;11.20;47.90;;;;;;4918386;29;20456;-76
2023/03/17 07:57:27;;;;;;;4.13;4.03;;;11.40;34.90;;;;;;4915428;29;20465;-77
2023/03/17 07:59:56;;;;;;;4.27;4.17;;;11.40;35.40;;;;;;4915111;29;21098;-77
2023/03/17 08:02:27;;;;;;;5.00;4.70;;;11.60;35.30;;;;;;4916321;29;20486;-78
2023/03/17 08:04:56;;;;;;;4.83;4.40;;;11.70;37.10;;;;;;4917832;29;20458;-78
2023/03/17 08:07:25;;;;;;;4.67;4.50;;;11.90;37.50;;;;;;4919398;29;20453;-78
2023/03/17 08:09:53;;;;;;;5.00;4.80;;;12.00;38.30;;;;;;4914543;29;20484;-79
2023/03/17 08:12:22;;;;;;;4.47;4.37;;;12.10;39.10;;;;;;4916358;29;20480;-79
2023/03/17 08:14:51;;;;;;;4.20;4.10;;;12.30;41.80;;;;;;4916054;29;20465;-79
2023/03/17 08:17:19;;;;;;;4.97;4.77;;;12.70;43.90;;;;;;4913173;29;20806;-78
2023/03/17 08:19:50;;;;;;;4.73;4.53;;;12.90;44.20;;;;;;4915865;29;20465;-78
2023/03/17 08:22:18;;;;;;;4.23;4.03;;;13.10;46.90;;;;;;4918085;29;20576;-79
2023/03/17 08:24:47;;;;;;;4.57;4.37;;;13.20;47.50;;;;;;4917016;29;21045;-80
2023/03/17 08:27:16;;;;;;;4.47;4.30;;;13.40;47.00;;;;;;4918502;29;20557;-78
2023/03/17 08:29:44;;;;;;;4.90;4.30;;;13.40;61.80;;;;;;4919451;29;20553;-78
2023/03/17 08:32:13;;;;;;;4.27;4.07;;;13.50;46.30;;;;;;4916345;29;21080;-77
2023/03/17 08:34:43;;;;;;;4.30;4.10;;;13.80;48.10;;;;;;4919755;29;20456;-79
2023/03/17 08:37:14;;;;;;;4.87;4.67;;;14.00;49.20;;;;;;4910220;29;20556;-78
2023/03/17 08:39:43;;;;;;;4.47;4.27;;;14.10;48.80;;;;;;4923009;29;20474;-77
2023/03/17 08:42:13;;;;;;;4.50;4.30;;;14.00;46.00;;;;;;4919056;29;20492;-78
2023/03/17 08:44:42;;;;;;;4.60;4.40;;;14.10;46.10;;;;;;4919630;29;20552;-78
2023/03/17 08:47:11;;;;;;;4.20;4.03;;;14.30;48.80;;;;;;4922013;29;21228;-79
2023/03/17 08:49:39;;;;;;;4.00;3.80;;;14.40;48.80;;;;;;4916812;29;20457;-78
2023/03/17 08:52:08;;;;;;;4.80;4.50;;;14.50;49.50;;;;;;4917046;29;20476;-78
2023/03/17 08:54:38;;;;;;;4.60;4.40;;;15.30;56.60;;;;;;4921514;29;20647;-79
2023/03/17 08:57:07;;;;;;;4.07;3.90;;;15.00;51.80;;;;;;4923369;29;20463;-78
2023/03/17 08:59:36;;;;;;;4.13;4.03;;;14.80;47.90;;;;;;4923457;29;20534;-79
2023/03/17 09:02:04;;;;;;;4.70;4.50;;;14.70;48.80;;;;;;4922055;29;20479;-80
2023/03/17 09:04:32;;;;;;;4.67;4.47;;;14.30;43.70;;;;;;4924475;29;20461;-78
2023/03/17 09:07:01;;;;;;;4.60;4.40;;;14.00;40.20;;;;;;4922550;29;20464;-80
2023/03/17 09:09:33;;;;;;;4.40;4.20;;;14.10;41.20;;;;;;4921637;29;20543;-79
2023/03/17 09:12:05;;;;;;;4.40;4.20;;;14.30;42.80;;;;;;4923315;29;20470;-76
2023/03/17 09:14:35;;;;;;;5.77;4.37;;;14.30;42.90;;;;;;4913707;29;20546;-78
2023/03/17 09:17:14;;;;;;;4.30;4.20;;;14.60;46.60;;;;;;4923259;29;20811;-77
2023/03/17 09:19:43;;;;;;;4.40;4.10;;;15.20;52.80;;;;;;4919540;29;20463;-79
2023/03/17 09:22:13;;;;;;;4.90;4.50;;;15.30;52.90;;;;;;4923111;29;20561;-78
2023/03/17 09:24:42;;;;;;;4.90;4.77;;;15.50;54.80;;;;;;4917791;29;20850;-77
2023/03/17 09:27:12;;;;;;;4.40;4.20;;;15.20;50.40;;;;;;4918875;29;20490;-78
2023/03/17 09:29:41;;;;;;;4.13;3.93;;;15.40;54.00;;;;;;4919245;29;21061;-78
2023/03/17 09:32:10;;;;;;;4.40;4.20;;;15.70;56.10;;;;;;4918749;29;21326;-78
2023/03/17 09:34:38;;;;;;;4.60;4.50;;;16.50;64.30;;;;;;4914719;29;20471;-79
2023/03/17 09:37:08;;;;;;;5.30;5.10;;;17.40;77.70;;;;;;4916938;29;20471;-79
2023/03/17 09:39:37;;;;;;;5.70;5.50;;;19.20;93.30;;;;;;4918064;29;20481;-79
2023/03/17 09:42:21;;;;;;;6.33;6.13;;;20.10;98.30;;;;;;4915759;29;20488;-79
2023/03/17 09:45:05;;;;;;;6.20;5.80;;;20.40;98.80;;;;;;4918242;29;20461;-79
2023/03/17 09:47:51;;;;;;;6.80;6.40;;;21.30;99.90;;;;;;4921130;29;21015;-81
2023/03/17 09:50:25;;;;;;;5.70;5.50;;;22.60;99.90;;;;;;4921631;29;20450;-79
2023/03/17 09:52:57;;;;;;;5.23;5.03;;;23.10;99.90;;;;;;4920848;29;20468;-80
2023/03/17 09:55:28;;;;;;;5.53;5.33;;;23.10;99.90;;;;;;4919391;29;20468;-81
2023/03/17 09:57:59;;;;;;;5.97;5.77;;;23.30;99.90;;;;;;4923688;29;20464;-80
2023/03/17 10:00:30;;;;;;;6.23;6.03;;;23.20;99.90;;;;;;4921059;29;20501;-80
2023/03/17 10:03:00;;;;;;;5.80;5.60;;;23.40;99.90;;;;;;4920362;29;21057;-80
2023/03/17 10:05:30;;;;;;;6.80;6.50;;;23.80;99.90;;;;;;4921458;29;20472;-76
2023/03/17 10:08:06;;;;;;;6.33;6.13;;;24.00;99.90;;;;;;4922450;29;20454;-77
2023/03/17 10:11:01;;;;;;;4.83;4.73;;;23.50;99.90;;;;;;4922719;29;20528;-80
2023/03/17 10:13:48;;;;;;;4.93;4.77;;;23.20;99.90;;;;;;4915750;29;20484;-80
2023/03/17 10:16:20;;;;;;;5.70;5.60;;;22.70;99.90;;;;;;4922164;29;20511;-79
2023/03/17 10:18:55;;;;;;;7.20;7.10;;;22.10;99.90;;;;;;4917198;29;20469;-79
2023/03/17 10:21:28;;;;;;;6.40;6.20;;;21.80;99.00;;;;;;4919972;29;20471;-80
2023/03/17 10:23:58;;;;;;;4.57;4.47;;;21.80;98.90;;;;;;4912158;29;20501;-78
2023/03/17 10:26:31;;;;;;;4.50;4.40;;;21.50;95.90;;;;;;4915002;29;20565;-80
2023/03/17 10:29:03;;;;;;;5.83;5.73;;;20.90;91.80;;;;;;4917507;29;20456;-78
2023/03/17 10:31:34;;;;;;;6.10;6.00;;;20.10;81.70;;;;;;4916750;29;20453;-79
2023/03/17 10:34:13;;;;;;;6.40;6.20;;;20.70;90.10;;;;;;4913439;29;20485;-75
2023/03/17 10:36:45;;;;;;;5.57;5.47;;;21.70;96.70;;;;;;4920908;29;21058;-80
2023/03/17 10:39:18;;;;;;;5.10;5.00;;;22.30;99.90;;;;;;4922120;29;20446;-79
2023/03/17 10:41:54;;;;;;;5.50;5.40;;;22.00;98.10;;;;;;4920259;29;20466;-79
2023/03/17 10:44:42;;;;;;;5.77;5.50;;;22.20;99.20;;;;;;4921600;29;20484;-76
2023/03/17 10:47:31;;;;;;;6.30;6.10;;;22.90;99.90;;;;;;4920275;29;20544;-77
2023/03/17 10:50:04;;;;;;;5.63;5.43;;;23.70;99.90;;;;;;4918451;29;20891;-79
2023/03/17 10:52:38;;;;;;;5.47;5.27;;;23.60;99.90;;;;;;4921949;29;20513;-75
2023/03/17 10:55:09;;;;;;;4.97;4.87;;;23.30;99.90;;;;;;4922019;29;20523;-78
2023/03/17 10:57:38;;;;;;;5.20;5.10;;;23.00;99.90;;;;;;4920391;29;20462;-78
2023/03/17 11:00:18;;;;;;;5.57;5.47;;;22.60;99.90;;;;;;4921761;29;20457;-79
2023/03/17 11:02:51;;;;;;;5.20;5.00;;;22.80;99.90;;;;;;4920881;29;20473;-78
2023/03/17 11:05:22;;;;;;;4.30;4.20;;;22.60;99.90;;;;;;4922062;29;20460;-78
2023/03/17 11:07:56;;;;;;;4.47;4.37;;;22.10;96.60;;;;;;4922586;29;20475;-80
2023/03/17 11:10:27;;;;;;;5.20;5.10;;;22.50;99.40;;;;;;4918659;29;20508;-79
2023/03/17 11:13:00;;;;;;;5.17;5.07;;;23.10;99.90;;;;;;4922489;29;21180;-77
2023/03/17 11:15:34;;;;;;;4.17;3.80;;;23.20;99.90;;;;;;4921782;29;20464;-77
2023/03/17 11:18:04;;;;;;;5.97;5.63;;;23.40;99.90;;;;;;4921299;29;20457;-78
2023/03/17 11:20:50;;;;;;;5.40;5.30;;;23.20;99.90;;;;;;4921714;29;20464;-78
2023/03/17 11:23:28;;;;;;;5.67;5.43;;;22.40;98.60;;;;;;4919343;29;20472;-75
2023/03/17 11:26:06;;;;;;;5.60;5.40;;;21.90;94.80;;;;;;4917680;29;20954;-78
2023/03/17 11:28:39;;;;;;;6.00;5.80;;;22.00;95.90;;;;;;4920218;29;20467;-78
2023/03/17 11:31:16;;;;;;;4.97;4.87;;;22.20;98.00;;;;;;4919840;29;20479;-79
2023/03/17 11:33:55;;;;;;;5.03;4.93;;;22.50;99.00;;;;;;4921101;29;20543;-78
2023/03/17 11:36:40;;;;;;;4.90;4.70;;;22.30;96.60;;;;;;4913786;29;20954;-77
2023/03/17 11:39:12;;;;;;;5.00;4.80;;;21.20;89.30;;;;;;4912827;29;20466;-77
2023/03/17 11:41:58;;;;;;;4.70;4.60;;;20.70;79.50;;;;;;4918775;29;20461;-77
2023/03/17 11:44:51;;;;;;;4.80;4.60;;;20.40;76.10;;;;;;4918888;29;20583;-76
2023/03/17 11:47:41;;;;;;;5.20;5.10;;;20.20;73.90;;;;;;4917126;29;20536;-78
2023/03/17 11:50:20;;;;;;;5.53;5.33;;;20.00;71.40;;;;;;4920283;29;20464;-77
2023/03/17 11:53:06;;;;;;;4.60;4.50;;;19.60;67.60;;;;;;4921879;29;20476;-73
2023/03/17 11:55:43;;;;;;;4.00;3.90;;;19.60;66.10;;;;;;4924345;29;20476;-77
2023/03/17 11:58:21;;;;;;;3.70;3.60;;;19.50;65.70;;;;;;4923509;29;20469;-76
2023/03/17 12:00:53;;;;;;;3.73;3.63;;;19.60;63.40;;;;;;4922531;29;20544;-78
2023/03/17 12:03:32;;;;;;;4.97;4.87;;;19.50;63.30;;;;;;4922943;29;21113;-77
2023/03/17 12:06:04;;;;;;;3.37;3.27;;;19.40;59.70;;;;;;4921889;29;20600;-77
2023/03/17 12:08:39;;;;;;;4.13;3.97;;;19.30;62.40;;;;;;4920314;29;20486;-76
2023/03/17 12:11:10;;;;;;;4.00;3.60;;;19.30;79.60;;;;;;4923807;29;20459;-75
2023/03/17 12:13:44;;;;;;;4.93;4.83;;;19.20;60.00;;;;;;4912074;29;20481;-77
2023/03/17 12:16:18;;;;;;;3.97;3.87;;;19.30;59.80;;;;;;4922574;29;20461;-76
2023/03/17 12:18:57;;;;;;;3.70;3.60;;;19.20;60.60;;;;;;4922612;29;20461;-76
2023/03/17 12:21:33;;;;;;;5.33;3.90;;;19.20;61.00;;;;;;4922482;29;20463;-76
2023/03/17 12:24:10;;;;;;;5.80;5.60;;;19.20;62.00;;;;;;4919875;29;20491;-76
2023/03/17 12:26:44;;;;;;;5.53;5.33;;;19.20;60.00;;;;;;4925047;29;20460;-76
2023/03/17 12:29:16;;;;;;;5.77;5.47;;;19.20;60.40;;;;;;4921999;29;20496;-76
2023/03/17 12:31:52;;;;;;;4.40;4.30;;;19.10;59.60;;;;;;4923624;29;21025;-76
2023/03/17 12:34:28;;;;;;;5.17;4.97;;;19.00;58.80;;;;;;4922820;29;21074;-77
2023/03/17 12:36:57;;;;;;;4.30;4.10;;;19.00;58.60;;;;;;4918076;29;20445;-77
2023/03/17 12:39:30;;;;;;;4.50;4.40;;;19.00;58.20;;;;;;4913272;29;20464;-78
2023/03/17 12:42:14;;;;;;;4.00;3.90;;;19.00;57.80;;;;;;4913907;29;20467;-76
2023/03/17 12:45:03;;;;;;;4.50;4.30;;;19.10;57.80;;;;;;4917579;29;21308;-76
2023/03/17 12:47:58;;;;;;;4.00;3.90;;;19.10;57.50;;;;;;4917122;29;20476;-77
2023/03/17 12:50:50;;;;;;;4.00;3.80;;;19.10;57.20;;;;;;4914263;29;20833;-78
2023/03/17 12:53:28;;;;;;;3.70;3.60;;;19.10;56.90;;;;;;4916029;29;20529;-76
2023/03/17 12:56:02;;;;;;;3.10;3.00;;;19.10;56.80;;;;;;4921156;29;20461;-74
2023/03/17 12:58:35;;;;;;;3.70;3.50;;;19.00;56.40;;;;;;4922078;29;20460;-76
2023/03/17 13:01:11;;;;;;;3.50;3.40;;;19.00;54.10;;;;;;4922716;29;20452;-78
2023/03/17 13:03:57;;;;;;;3.80;3.60;;;18.90;53.80;;;;;;4923324;29;20485;-79
2023/03/17 13:06:31;;;;;;;4.10;4.00;;;18.90;53.50;;;;;;4925869;29;20444;-76
2023/03/17 13:09:42;;;;;;;4.00;3.90;;;18.90;54.00;;;;;;4922691;29;20452;-76
2023/03/17 13:12:55;;;;;;;4.10;4.00;;;18.80;53.10;;;;;;4919512;29;20497;-76